Jacksonville Naval Air Station
KNIP : rendu visible

Aérodrome :











RETROUVEZ-NOUS SUR...

 
LOGIN :

S'inscrire | Disclaimer

   EN    FR    IT 

 









Légende :    VFR   VFR Marginal   IFR   IFR Intensif   IFR Très Intensif
Visi : 
Plafond : 
>= 8 km
>= 3000ft
5 à 8 km
1000 à 3000 ft
1500m à 5 km
500 à 1000 ft
800 à 1500m
200 à 500 ft
< 800m
< 200 ft
Symboles :   Orages  Brouillard  Fortes neiges  Fortes précipitations  Vent > 20 kt






- Altitude de l'aérodrome : 21 ft


KNIP - Jacksonville Naval Air Station

DERNIER METAR :
  • 221553Z 02017KT 10SM FEW035 13/04 A3042 RMK AO2 SLP298 T01280044

METARs EXPIRÉS :
  • 221453Z 01013KT 10SM FEW035 10/02 A3042 RMK AO2 SLP297 T01000022 51020

TAF TAF KNIP
Valide du 22 à 15h jusqu'au 23 à 15h UTC


2215/2315 02014G22KT 9999 FEW035 QNH3032INS
BECMG 2223/2300 01008KT 9999 FEW040 FEW250 QNH3025INS
TEMPO 2306/2312 6000 BR T14/2221Z T08/2310Z FN00197



MET'MAP, la Météo Aéronautique d'un coup d'oeil ! - Copyright ORBIFLY Décembre 2007 - Disclaimer

ORBIFLY MET'MAP TEAM :

Programmation & Développement : Alexandra Zaïnal
Sur une idée originale de : Baudouin d'Aumeries
Assistance à la programmation : Marc-Olivier Méhu
Soutien technique & logistique : Manuel Goepfert

Contact : metmap@orbifly.com




SOURCES & CREDITS :

   NOAA       Earth
Advisory